sensor_id;sensor_type;location;lat;lon;timestamp;P1;durP1;ratioP1;P2;durP2;ratioP2
29958;SDS011;16815;51.100;6.516;2023-07-24T00:01:34;2.90;;;2.20;;
29958;SDS011;16815;51.100;6.516;2023-07-24T00:04:00;2.60;;;2.40;;
29958;SDS011;16815;51.100;6.516;2023-07-24T00:06:26;4.17;;;2.70;;
29958;SDS011;16815;51.100;6.516;2023-07-24T00:08:52;3.07;;;2.67;;
29958;SDS011;16815;51.100;6.516;2023-07-24T00:11:18;3.83;;;3.10;;
29958;SDS011;16815;51.100;6.516;2023-07-24T00:13:44;3.43;;;2.57;;
29958;SDS011;16815;51.100;6.516;2023-07-24T00:16:10;2.90;;;2.40;;
29958;SDS011;16815;51.100;6.516;2023-07-24T00:18:36;4.27;;;2.50;;
29958;SDS011;16815;51.100;6.516;2023-07-24T00:21:02;2.63;;;2.43;;
29958;SDS011;16815;51.100;6.516;2023-07-24T00:23:28;4.23;;;2.63;;
29958;SDS011;16815;51.100;6.516;2023-07-24T00:25:54;4.97;;;2.57;;
29958;SDS011;16815;51.100;6.516;2023-07-24T00:28:20;3.63;;;2.50;;
29958;SDS011;16815;51.100;6.516;2023-07-24T00:30:46;3.70;;;2.80;;
29958;SDS011;16815;51.100;6.516;2023-07-24T00:33:12;2.67;;;2.40;;
29958;SDS011;16815;51.100;6.516;2023-07-24T00:35:38;4.60;;;2.83;;
29958;SDS011;16815;51.100;6.516;2023-07-24T00:38:04;2.70;;;2.50;;
29958;SDS011;16815;51.100;6.516;2023-07-24T00:40:30;3.87;;;2.83;;
29958;SDS011;16815;51.100;6.516;2023-07-24T00:42:56;3.93;;;2.70;;
29958;SDS011;16815;51.100;6.516;2023-07-24T00:45:22;5.20;;;3.00;;
29958;SDS011;16815;51.100;6.516;2023-07-24T00:47:48;3.73;;;2.73;;
29958;SDS011;16815;51.100;6.516;2023-07-24T00:50:14;7.47;;;3.33;;
29958;SDS011;16815;51.100;6.516;2023-07-24T00:52:41;6.17;;;3.20;;
29958;SDS011;16815;51.100;6.516;2023-07-24T00:55:07;2.97;;;2.67;;
29958;SDS011;16815;51.100;6.516;2023-07-24T00:57:33;4.97;;;2.90;;
29958;SDS011;16815;51.100;6.516;2023-07-24T00:59:59;3.00;;;2.70;;
29958;SDS011;16815;51.100;6.516;2023-07-24T01:02:25;3.87;;;2.80;;
29958;SDS011;16815;51.100;6.516;2023-07-24T01:04:51;5.03;;;3.27;;
29958;SDS011;16815;51.100;6.516;2023-07-24T01:07:17;3.97;;;2.90;;
29958;SDS011;16815;51.100;6.516;2023-07-24T01:09:43;4.33;;;3.13;;
29958;SDS011;16815;51.100;6.516;2023-07-24T01:12:31;4.03;;;2.90;;
29958;SDS011;16815;51.100;6.516;2023-07-24T01:15:02;3.50;;;2.83;;
29958;SDS011;16815;51.100;6.516;2023-07-24T01:17:29;4.60;;;3.50;;
29958;SDS011;16815;51.100;6.516;2023-07-24T01:19:58;3.70;;;3.13;;
29958;SDS011;16815;51.100;6.516;2023-07-24T01:27:44;5.93;;;3.90;;
29958;SDS011;16815;51.100;6.516;2023-07-24T01:30:11;5.37;;;3.83;;
29958;SDS011;16815;51.100;6.516;2023-07-24T01:32:37;5.20;;;3.50;;
29958;SDS011;16815;51.100;6.516;2023-07-24T01:35:03;4.53;;;3.50;;
29958;SDS011;16815;51.100;6.516;2023-07-24T01:37:30;4.50;;;3.70;;
29958;SDS011;16815;51.100;6.516;2023-07-24T01:39:56;5.00;;;4.23;;
29958;SDS011;16815;51.100;6.516;2023-07-24T01:42:22;9.23;;;3.97;;
29958;SDS011;16815;51.100;6.516;2023-07-24T01:44:52;8.30;;;3.70;;
29958;SDS011;16815;51.100;6.516;2023-07-24T01:47:18;4.63;;;3.40;;
29958;SDS011;16815;51.100;6.516;2023-07-24T01:49:44;8.40;;;4.37;;
29958;SDS011;16815;51.100;6.516;2023-07-24T01:52:10;4.90;;;3.93;;
29958;SDS011;16815;51.100;6.516;2023-07-24T01:54:36;7.47;;;3.90;;
29958;SDS011;16815;51.100;6.516;2023-07-24T01:57:02;6.53;;;3.97;;
29958;SDS011;16815;51.100;6.516;2023-07-24T01:59:28;5.80;;;3.80;;
29958;SDS011;16815;51.100;6.516;2023-07-24T02:01:54;3.80;;;3.50;;
29958;SDS011;16815;51.100;6.516;2023-07-24T02:04:20;5.23;;;3.83;;
29958;SDS011;16815;51.100;6.516;2023-07-24T02:06:47;6.40;;;3.47;;
29958;SDS011;16815;51.100;6.516;2023-07-24T02:09:13;5.07;;;3.50;;
29958;SDS011;16815;51.100;6.516;2023-07-24T02:11:40;5.33;;;3.77;;
29958;SDS011;16815;51.100;6.516;2023-07-24T02:14:06;5.80;;;3.63;;
29958;SDS011;16815;51.100;6.516;2023-07-24T02:16:31;5.27;;;3.97;;
29958;SDS011;16815;51.100;6.516;2023-07-24T02:18:57;5.57;;;4.13;;
29958;SDS011;16815;51.100;6.516;2023-07-24T02:21:23;6.17;;;4.07;;
29958;SDS011;16815;51.100;6.516;2023-07-24T02:23:49;4.80;;;3.80;;
29958;SDS011;16815;51.100;6.516;2023-07-24T02:26:15;4.00;;;3.60;;
29958;SDS011;16815;51.100;6.516;2023-07-24T02:28:41;4.23;;;3.83;;
29958;SDS011;16815;51.100;6.516;2023-07-24T02:31:07;6.90;;;4.27;;
29958;SDS011;16815;51.100;6.516;2023-07-24T02:33:33;9.03;;;4.43;;
29958;SDS011;16815;51.100;6.516;2023-07-24T02:36:00;5.73;;;4.13;;
29958;SDS011;16815;51.100;6.516;2023-07-24T02:38:26;5.50;;;3.80;;
29958;SDS011;16815;51.100;6.516;2023-07-24T02:40:52;5.80;;;3.67;;
29958;SDS011;16815;51.100;6.516;2023-07-24T02:43:17;6.43;;;4.27;;
29958;SDS011;16815;51.100;6.516;2023-07-24T02:45:43;6.63;;;3.83;;
29958;SDS011;16815;51.100;6.516;2023-07-24T02:48:09;4.57;;;3.97;;
29958;SDS011;16815;51.100;6.516;2023-07-24T02:50:35;10.33;;;4.17;;
29958;SDS011;16815;51.100;6.516;2023-07-24T02:53:01;6.60;;;4.60;;
29958;SDS011;16815;51.100;6.516;2023-07-24T02:55:27;8.00;;;4.50;;
29958;SDS011;16815;51.100;6.516;2023-07-24T02:57:53;5.83;;;4.30;;
29958;SDS011;16815;51.100;6.516;2023-07-24T03:00:19;5.57;;;4.20;;
29958;SDS011;16815;51.100;6.516;2023-07-24T03:02:45;7.67;;;4.27;;
29958;SDS011;16815;51.100;6.516;2023-07-24T03:05:11;9.80;;;4.67;;
29958;SDS011;16815;51.100;6.516;2023-07-24T03:07:37;8.47;;;4.03;;
29958;SDS011;16815;51.100;6.516;2023-07-24T03:10:03;6.90;;;4.10;;
29958;SDS011;16815;51.100;6.516;2023-07-24T03:12:29;9.43;;;4.20;;
29958;SDS011;16815;51.100;6.516;2023-07-24T03:14:55;5.10;;;4.00;;
29958;SDS011;16815;51.100;6.516;2023-07-24T03:17:22;8.73;;;4.23;;
29958;SDS011;16815;51.100;6.516;2023-07-24T03:19:48;6.90;;;4.70;;
29958;SDS011;16815;51.100;6.516;2023-07-24T03:22:14;7.33;;;4.20;;
29958;SDS011;16815;51.100;6.516;2023-07-24T03:24:40;6.07;;;3.80;;
29958;SDS011;16815;51.100;6.516;2023-07-24T03:27:06;6.07;;;4.13;;
29958;SDS011;16815;51.100;6.516;2023-07-24T03:29:32;5.50;;;4.03;;
29958;SDS011;16815;51.100;6.516;2023-07-24T03:31:59;5.33;;;3.77;;
29958;SDS011;16815;51.100;6.516;2023-07-24T03:34:25;5.67;;;4.30;;
29958;SDS011;16815;51.100;6.516;2023-07-24T03:36:51;6.23;;;4.07;;
29958;SDS011;16815;51.100;6.516;2023-07-24T03:39:17;7.73;;;4.13;;
29958;SDS011;16815;51.100;6.516;2023-07-24T03:41:43;7.70;;;4.10;;
29958;SDS011;16815;51.100;6.516;2023-07-24T03:44:08;6.73;;;4.50;;
29958;SDS011;16815;51.100;6.516;2023-07-24T03:46:34;6.43;;;4.07;;
29958;SDS011;16815;51.100;6.516;2023-07-24T03:49:00;5.50;;;3.90;;
29958;SDS011;16815;51.100;6.516;2023-07-24T03:51:26;7.43;;;4.13;;
29958;SDS011;16815;51.100;6.516;2023-07-24T03:53:52;6.17;;;4.50;;
29958;SDS011;16815;51.100;6.516;2023-07-24T03:56:18;5.40;;;3.77;;
29958;SDS011;16815;51.100;6.516;2023-07-24T03:58:45;5.60;;;4.50;;
29958;SDS011;16815;51.100;6.516;2023-07-24T04:01:11;5.30;;;4.10;;
29958;SDS011;16815;51.100;6.516;2023-07-24T04:03:37;6.27;;;4.03;;
29958;SDS011;16815;51.100;6.516;2023-07-24T04:06:03;4.87;;;4.33;;
29958;SDS011;16815;51.100;6.516;2023-07-24T04:08:29;7.93;;;4.50;;
29958;SDS011;16815;51.100;6.516;2023-07-24T04:10:55;6.23;;;3.97;;
29958;SDS011;16815;51.100;6.516;2023-07-24T04:13:21;7.33;;;4.50;;
29958;SDS011;16815;51.100;6.516;2023-07-24T04:15:47;7.73;;;4.70;;
29958;SDS011;16815;51.100;6.516;2023-07-24T04:18:13;6.30;;;4.70;;
29958;SDS011;16815;51.100;6.516;2023-07-24T04:20:39;7.23;;;4.60;;
29958;SDS011;16815;51.100;6.516;2023-07-24T04:23:05;6.73;;;4.33;;
29958;SDS011;16815;51.100;6.516;2023-07-24T04:25:31;7.83;;;4.10;;
29958;SDS011;16815;51.100;6.516;2023-07-24T04:27:57;8.33;;;3.97;;
29958;SDS011;16815;51.100;6.516;2023-07-24T04:30:23;5.77;;;3.83;;
29958;SDS011;16815;51.100;6.516;2023-07-24T04:32:49;5.43;;;4.20;;
29958;SDS011;16815;51.100;6.516;2023-07-24T04:35:15;6.07;;;4.33;;
29958;SDS011;16815;51.100;6.516;2023-07-24T04:37:41;7.03;;;4.23;;
29958;SDS011;16815;51.100;6.516;2023-07-24T04:40:07;5.73;;;4.50;;
29958;SDS011;16815;51.100;6.516;2023-07-24T04:42:33;6.77;;;4.47;;
29958;SDS011;16815;51.100;6.516;2023-07-24T04:44:59;6.20;;;4.23;;
29958;SDS011;16815;51.100;6.516;2023-07-24T04:47:25;5.23;;;3.93;;
29958;SDS011;16815;51.100;6.516;2023-07-24T04:49:51;6.43;;;4.43;;
29958;SDS011;16815;51.100;6.516;2023-07-24T04:52:17;7.30;;;4.80;;
29958;SDS011;16815;51.100;6.516;2023-07-24T04:54:43;8.10;;;3.93;;
29958;SDS011;16815;51.100;6.516;2023-07-24T04:57:09;7.13;;;4.20;;
29958;SDS011;16815;51.100;6.516;2023-07-24T04:59:35;6.33;;;4.70;;
29958;SDS011;16815;51.100;6.516;2023-07-24T05:02:01;5.07;;;4.20;;
29958;SDS011;16815;51.100;6.516;2023-07-24T05:04:26;7.00;;;4.20;;
29958;SDS011;16815;51.100;6.516;2023-07-24T05:06:52;7.03;;;4.33;;
29958;SDS011;16815;51.100;6.516;2023-07-24T05:09:18;6.67;;;4.47;;
29958;SDS011;16815;51.100;6.516;2023-07-24T05:11:44;5.33;;;4.10;;
29958;SDS011;16815;51.100;6.516;2023-07-24T05:14:10;8.40;;;4.60;;
29958;SDS011;16815;51.100;6.516;2023-07-24T05:16:36;5.43;;;4.60;;
29958;SDS011;16815;51.100;6.516;2023-07-24T05:19:02;5.03;;;4.53;;
29958;SDS011;16815;51.100;6.516;2023-07-24T05:21:28;6.33;;;4.80;;
29958;SDS011;16815;51.100;6.516;2023-07-24T05:23:54;5.40;;;4.60;;
29958;SDS011;16815;51.100;6.516;2023-07-24T05:26:20;4.40;;;4.00;;
29958;SDS011;16815;51.100;6.516;2023-07-24T05:28:47;6.47;;;4.27;;
29958;SDS011;16815;51.100;6.516;2023-07-24T05:31:13;8.27;;;4.47;;
29958;SDS011;16815;51.100;6.516;2023-07-24T05:33:39;6.27;;;4.43;;
29958;SDS011;16815;51.100;6.516;2023-07-24T05:36:05;5.50;;;4.23;;
29958;SDS011;16815;51.100;6.516;2023-07-24T05:38:31;5.27;;;4.20;;
29958;SDS011;16815;51.100;6.516;2023-07-24T05:40:57;6.27;;;4.53;;
29958;SDS011;16815;51.100;6.516;2023-07-24T05:43:23;7.63;;;4.33;;
29958;SDS011;16815;51.100;6.516;2023-07-24T05:45:53;6.00;;;4.03;;
29958;SDS011;16815;51.100;6.516;2023-07-24T05:48:19;4.13;;;3.80;;
29958;SDS011;16815;51.100;6.516;2023-07-24T05:50:45;7.43;;;4.17;;
29958;SDS011;16815;51.100;6.516;2023-07-24T05:53:12;7.13;;;4.20;;
29958;SDS011;16815;51.100;6.516;2023-07-24T05:55:38;5.33;;;4.13;;
29958;SDS011;16815;51.100;6.516;2023-07-24T05:58:04;6.17;;;4.20;;
29958;SDS011;16815;51.100;6.516;2023-07-24T06:00:30;6.30;;;3.70;;
29958;SDS011;16815;51.100;6.516;2023-07-24T06:02:56;5.03;;;3.97;;
29958;SDS011;16815;51.100;6.516;2023-07-24T06:05:22;6.03;;;3.90;;
29958;SDS011;16815;51.100;6.516;2023-07-24T06:07:48;5.17;;;3.80;;
29958;SDS011;16815;51.100;6.516;2023-07-24T06:10:14;4.40;;;3.40;;
29958;SDS011;16815;51.100;6.516;2023-07-24T06:12:40;4.47;;;3.57;;
29958;SDS011;16815;51.100;6.516;2023-07-24T06:15:06;4.20;;;2.93;;
29958;SDS011;16815;51.100;6.516;2023-07-24T06:17:32;4.53;;;3.83;;
29958;SDS011;16815;51.100;6.516;2023-07-24T06:19:59;3.63;;;3.33;;
29958;SDS011;16815;51.100;6.516;2023-07-24T06:22:25;3.77;;;3.23;;
29958;SDS011;16815;51.100;6.516;2023-07-24T06:24:50;4.97;;;3.03;;
29958;SDS011;16815;51.100;6.516;2023-07-24T06:27:16;3.67;;;3.10;;
29958;SDS011;16815;51.100;6.516;2023-07-24T06:29:42;3.70;;;3.40;;
29958;SDS011;16815;51.100;6.516;2023-07-24T06:32:08;6.90;;;3.47;;
29958;SDS011;16815;51.100;6.516;2023-07-24T06:34:34;3.37;;;2.90;;
29958;SDS011;16815;51.100;6.516;2023-07-24T06:37:00;3.83;;;2.83;;
29958;SDS011;16815;51.100;6.516;2023-07-24T06:39:26;4.97;;;3.13;;
29958;SDS011;16815;51.100;6.516;2023-07-24T06:41:56;3.37;;;3.00;;
29958;SDS011;16815;51.100;6.516;2023-07-24T06:44:22;3.93;;;2.97;;
29958;SDS011;16815;51.100;6.516;2023-07-24T06:46:47;3.03;;;2.73;;
29958;SDS011;16815;51.100;6.516;2023-07-24T06:49:13;3.93;;;2.97;;
29958;SDS011;16815;51.100;6.516;2023-07-24T06:51:39;4.70;;;2.90;;
29958;SDS011;16815;51.100;6.516;2023-07-24T06:54:05;4.63;;;2.80;;
29958;SDS011;16815;51.100;6.516;2023-07-24T06:56:31;3.60;;;2.80;;
29958;SDS011;16815;51.100;6.516;2023-07-24T06:58:57;4.20;;;2.80;;
29958;SDS011;16815;51.100;6.516;2023-07-24T07:01:23;3.20;;;2.80;;
29958;SDS011;16815;51.100;6.516;2023-07-24T07:03:49;4.00;;;2.87;;
29958;SDS011;16815;51.100;6.516;2023-07-24T07:06:15;4.17;;;2.90;;
29958;SDS011;16815;51.100;6.516;2023-07-24T07:08:41;4.00;;;3.00;;
29958;SDS011;16815;51.100;6.516;2023-07-24T07:11:07;3.37;;;3.07;;
29958;SDS011;16815;51.100;6.516;2023-07-24T07:13:33;6.03;;;5.03;;
29958;SDS011;16815;51.100;6.516;2023-07-24T07:15:59;4.03;;;3.30;;
29958;SDS011;16815;51.100;6.516;2023-07-24T07:18:25;3.47;;;3.10;;
29958;SDS011;16815;51.100;6.516;2023-07-24T07:20:52;3.80;;;2.90;;
29958;SDS011;16815;51.100;6.516;2023-07-24T07:23:19;3.30;;;2.90;;
29958;SDS011;16815;51.100;6.516;2023-07-24T07:25:45;7.07;;;3.07;;
29958;SDS011;16815;51.100;6.516;2023-07-24T07:28:12;3.87;;;2.87;;
29958;SDS011;16815;51.100;6.516;2023-07-24T07:30:38;3.90;;;3.10;;
29958;SDS011;16815;51.100;6.516;2023-07-24T07:33:04;4.03;;;2.80;;
29958;SDS011;16815;51.100;6.516;2023-07-24T07:35:31;4.57;;;3.17;;
29958;SDS011;16815;51.100;6.516;2023-07-24T07:37:57;6.60;;;3.33;;
29958;SDS011;16815;51.100;6.516;2023-07-24T07:40:23;6.13;;;2.60;;
29958;SDS011;16815;51.100;6.516;2023-07-24T07:42:49;3.70;;;2.90;;
29958;SDS011;16815;51.100;6.516;2023-07-24T07:45:15;4.97;;;2.87;;
29958;SDS011;16815;51.100;6.516;2023-07-24T07:47:41;2.80;;;2.60;;
29958;SDS011;16815;51.100;6.516;2023-07-24T07:50:07;3.30;;;3.00;;
29958;SDS011;16815;51.100;6.516;2023-07-24T07:52:33;3.73;;;2.77;;
29958;SDS011;16815;51.100;6.516;2023-07-24T07:54:59;4.50;;;2.80;;
29958;SDS011;16815;51.100;6.516;2023-07-24T07:57:25;5.63;;;3.37;;
29958;SDS011;16815;51.100;6.516;2023-07-24T07:59:51;4.77;;;2.87;;
29958;SDS011;16815;51.100;6.516;2023-07-24T08:26:07;3.80;;;2.80;;
29958;SDS011;16815;51.100;6.516;2023-07-24T09:44:19;3.47;;;2.53;;
29958;SDS011;16815;51.100;6.516;2023-07-24T09:46:45;2.72;;;2.30;;
29958;SDS011;16815;51.100;6.516;2023-07-24T09:49:11;2.72;;;2.33;;
29958;SDS011;16815;51.100;6.516;2023-07-24T09:51:41;2.22;;;2.08;;
29958;SDS011;16815;51.100;6.516;2023-07-24T11:29:16;18.13;;;2.37;;
29958;SDS011;16815;51.100;6.516;2023-07-24T11:31:42;7.93;;;1.70;;
29958;SDS011;16815;51.100;6.516;2023-07-24T11:34:08;3.20;;;1.50;;
29958;SDS011;16815;51.100;6.516;2023-07-24T11:36:34;5.93;;;1.53;;
29958;SDS011;16815;51.100;6.516;2023-07-24T11:39:00;2.53;;;1.27;;
29958;SDS011;16815;51.100;6.516;2023-07-24T11:41:26;1.57;;;1.20;;
29958;SDS011;16815;51.100;6.516;2023-07-24T11:43:53;1.43;;;1.33;;
29958;SDS011;16815;51.100;6.516;2023-07-24T11:46:25;1.87;;;1.20;;
29958;SDS011;16815;51.100;6.516;2023-07-24T11:48:51;1.77;;;1.40;;
29958;SDS011;16815;51.100;6.516;2023-07-24T11:51:18;1.50;;;1.40;;
29958;SDS011;16815;51.100;6.516;2023-07-24T11:53:44;1.73;;;1.60;;
29958;SDS011;16815;51.100;6.516;2023-07-24T11:56:14;2.77;;;1.77;;
29958;SDS011;16815;51.100;6.516;2023-07-24T11:58:41;3.40;;;1.83;;
29958;SDS011;16815;51.100;6.516;2023-07-24T12:01:07;2.73;;;2.10;;
29958;SDS011;16815;51.100;6.516;2023-07-24T12:03:32;2.20;;;2.00;;
29958;SDS011;16815;51.100;6.516;2023-07-24T12:05:59;2.60;;;2.00;;
29958;SDS011;16815;51.100;6.516;2023-07-24T12:08:31;3.40;;;1.83;;
29958;SDS011;16815;51.100;6.516;2023-07-24T12:10:58;2.00;;;1.50;;
29958;SDS011;16815;51.100;6.516;2023-07-24T12:13:24;3.90;;;2.10;;
29958;SDS011;16815;51.100;6.516;2023-07-24T12:15:50;2.17;;;1.77;;
29958;SDS011;16815;51.100;6.516;2023-07-24T12:18:16;3.13;;;1.50;;
29958;SDS011;16815;51.100;6.516;2023-07-24T12:20:42;3.57;;;1.80;;
29958;SDS011;16815;51.100;6.516;2023-07-24T12:23:08;1.63;;;1.53;;
29958;SDS011;16815;51.100;6.516;2023-07-24T12:25:34;1.97;;;1.50;;
29958;SDS011;16815;51.100;6.516;2023-07-24T12:28:00;1.80;;;1.70;;
29958;SDS011;16815;51.100;6.516;2023-07-24T12:30:26;1.50;;;1.30;;
29958;SDS011;16815;51.100;6.516;2023-07-24T12:32:52;1.70;;;1.60;;
29958;SDS011;16815;51.100;6.516;2023-07-24T12:35:18;1.50;;;1.40;;
29958;SDS011;16815;51.100;6.516;2023-07-24T12:37:44;2.10;;;1.50;;
29958;SDS011;16815;51.100;6.516;2023-07-24T12:40:11;2.00;;;1.67;;
29958;SDS011;16815;51.100;6.516;2023-07-24T12:42:37;2.00;;;1.30;;
29958;SDS011;16815;51.100;6.516;2023-07-24T12:45:03;1.33;;;1.23;;
29958;SDS011;16815;51.100;6.516;2023-07-24T12:47:30;1.50;;;1.40;;
29958;SDS011;16815;51.100;6.516;2023-07-24T12:49:59;1.60;;;1.50;;
29958;SDS011;16815;51.100;6.516;2023-07-24T12:52:26;1.40;;;1.33;;
29958;SDS011;16815;51.100;6.516;2023-07-24T12:54:51;1.30;;;1.20;;
29958;SDS011;16815;51.100;6.516;2023-07-24T12:57:17;1.40;;;1.30;;
29958;SDS011;16815;51.100;6.516;2023-07-24T12:59:43;1.27;;;1.13;;
29958;SDS011;16815;51.100;6.516;2023-07-24T13:02:09;1.40;;;1.30;;
29958;SDS011;16815;51.100;6.516;2023-07-24T13:04:35;1.57;;;1.40;;
29958;SDS011;16815;51.100;6.516;2023-07-24T13:07:01;2.27;;;1.30;;
29958;SDS011;16815;51.100;6.516;2023-07-24T13:09:32;2.17;;;1.40;;
29958;SDS011;16815;51.100;6.516;2023-07-24T13:11:58;1.30;;;1.20;;
29958;SDS011;16815;51.100;6.516;2023-07-24T13:14:24;1.20;;;1.10;;
29958;SDS011;16815;51.100;6.516;2023-07-24T13:16:50;1.40;;;1.30;;
29958;SDS011;16815;51.100;6.516;2023-07-24T13:19:16;1.90;;;1.50;;
29958;SDS011;16815;51.100;6.516;2023-07-24T13:21:42;1.60;;;1.40;;
29958;SDS011;16815;51.100;6.516;2023-07-24T13:24:08;2.30;;;1.37;;
29958;SDS011;16815;51.100;6.516;2023-07-24T13:26:34;1.50;;;1.40;;
29958;SDS011;16815;51.100;6.516;2023-07-24T13:29:00;1.30;;;1.20;;
29958;SDS011;16815;51.100;6.516;2023-07-24T13:31:26;1.33;;;1.23;;
29958;SDS011;16815;51.100;6.516;2023-07-24T13:33:53;1.57;;;1.47;;
29958;SDS011;16815;51.100;6.516;2023-07-24T13:36:19;1.33;;;1.10;;
29958;SDS011;16815;51.100;6.516;2023-07-24T13:38:45;1.33;;;1.23;;
29958;SDS011;16815;51.100;6.516;2023-07-24T13:41:12;1.40;;;1.30;;
29958;SDS011;16815;51.100;6.516;2023-07-24T13:43:38;1.10;;;1.10;;
29958;SDS011;16815;51.100;6.516;2023-07-24T13:46:04;1.10;;;1.10;;
29958;SDS011;16815;51.100;6.516;2023-07-24T13:48:33;1.30;;;1.20;;
29958;SDS011;16815;51.100;6.516;2023-07-24T13:50:58;1.20;;;1.10;;
29958;SDS011;16815;51.100;6.516;2023-07-24T13:53:24;1.00;;;0.90;;
29958;SDS011;16815;51.100;6.516;2023-07-24T13:55:50;1.20;;;1.10;;
29958;SDS011;16815;51.100;6.516;2023-07-24T13:58:17;2.37;;;1.37;;
29958;SDS011;16815;51.100;6.516;2023-07-24T14:00:43;2.53;;;1.37;;
29958;SDS011;16815;51.100;6.516;2023-07-24T14:03:09;2.70;;;1.57;;
29958;SDS011;16815;51.100;6.516;2023-07-24T14:05:34;1.47;;;1.37;;
29958;SDS011;16815;51.100;6.516;2023-07-24T14:08:03;1.40;;;1.30;;
29958;SDS011;16815;51.100;6.516;2023-07-24T14:10:29;2.08;;;1.50;;
29958;SDS011;16815;51.100;6.516;2023-07-24T14:12:55;2.00;;;1.40;;
29958;SDS011;16815;51.100;6.516;2023-07-24T14:15:21;3.60;;;1.52;;
29958;SDS011;16815;51.100;6.516;2023-07-24T14:17:47;1.50;;;1.40;;
29958;SDS011;16815;51.100;6.516;2023-07-24T14:20:13;3.17;;;1.23;;
29958;SDS011;16815;51.100;6.516;2023-07-24T14:22:39;1.53;;;1.43;;
29958;SDS011;16815;51.100;6.516;2023-07-24T14:25:05;2.93;;;1.70;;
29958;SDS011;16815;51.100;6.516;2023-07-24T14:27:31;3.40;;;1.80;;
29958;SDS011;16815;51.100;6.516;2023-07-24T14:29:58;2.30;;;1.80;;
29958;SDS011;16815;51.100;6.516;2023-07-24T14:32:24;1.87;;;1.77;;
29958;SDS011;16815;51.100;6.516;2023-07-24T14:34:50;3.13;;;1.87;;
29958;SDS011;16815;51.100;6.516;2023-07-24T14:37:17;2.53;;;1.90;;
29958;SDS011;16815;51.100;6.516;2023-07-24T14:39:43;2.57;;;1.87;;
29958;SDS011;16815;51.100;6.516;2023-07-24T14:42:09;2.20;;;2.10;;
29958;SDS011;16815;51.100;6.516;2023-07-24T14:44:35;3.33;;;2.20;;
29958;SDS011;16815;51.100;6.516;2023-07-24T14:47:01;3.43;;;2.23;;
29958;SDS011;16815;51.100;6.516;2023-07-24T14:49:27;3.90;;;2.20;;
29958;SDS011;16815;51.100;6.516;2023-07-24T14:51:53;2.83;;;2.40;;
29958;SDS011;16815;51.100;6.516;2023-07-24T14:54:19;2.63;;;2.30;;
29958;SDS011;16815;51.100;6.516;2023-07-24T14:56:45;2.50;;;2.30;;
29958;SDS011;16815;51.100;6.516;2023-07-24T14:59:11;2.50;;;2.30;;
29958;SDS011;16815;51.100;6.516;2023-07-24T15:01:37;2.40;;;2.13;;
29958;SDS011;16815;51.100;6.516;2023-07-24T15:04:03;2.10;;;1.90;;
29958;SDS011;16815;51.100;6.516;2023-07-24T15:06:29;2.60;;;2.20;;
29958;SDS011;16815;51.100;6.516;2023-07-24T15:08:56;2.27;;;2.07;;
29958;SDS011;16815;51.100;6.516;2023-07-24T15:11:22;2.60;;;2.10;;
29958;SDS011;16815;51.100;6.516;2023-07-24T15:13:49;1.93;;;1.83;;
29958;SDS011;16815;51.100;6.516;2023-07-24T15:16:15;2.33;;;1.90;;
29958;SDS011;16815;51.100;6.516;2023-07-24T15:18:41;1.73;;;1.63;;
29958;SDS011;16815;51.100;6.516;2023-07-24T15:21:07;2.13;;;1.80;;
29958;SDS011;16815;51.100;6.516;2023-07-24T15:23:34;2.47;;;1.85;;
29958;SDS011;16815;51.100;6.516;2023-07-24T15:26:00;1.67;;;1.58;;
29958;SDS011;16815;51.100;6.516;2023-07-24T15:28:26;1.80;;;1.67;;
29958;SDS011;16815;51.100;6.516;2023-07-24T15:30:52;1.75;;;1.50;;
29958;SDS011;16815;51.100;6.516;2023-07-24T15:33:18;2.22;;;1.50;;
29958;SDS011;16815;51.100;6.516;2023-07-24T15:35:44;1.77;;;1.67;;
29958;SDS011;16815;51.100;6.516;2023-07-24T15:38:10;2.20;;;2.00;;
29958;SDS011;16815;51.100;6.516;2023-07-24T15:40:37;2.17;;;2.00;;
29958;SDS011;16815;51.100;6.516;2023-07-24T15:43:04;3.15;;;2.20;;
29958;SDS011;16815;51.100;6.516;2023-07-24T15:45:30;4.90;;;2.15;;
29958;SDS011;16815;51.100;6.516;2023-07-24T15:47:56;2.40;;;2.00;;
29958;SDS011;16815;51.100;6.516;2023-07-24T15:50:22;3.20;;;2.17;;
29958;SDS011;16815;51.100;6.516;2023-07-24T15:52:48;2.30;;;2.20;;
29958;SDS011;16815;51.100;6.516;2023-07-24T15:55:14;2.47;;;2.28;;
29958;SDS011;16815;51.100;6.516;2023-07-24T15:57:40;2.75;;;2.53;;
29958;SDS011;16815;51.100;6.516;2023-07-24T16:00:06;2.85;;;2.33;;
29958;SDS011;16815;51.100;6.516;2023-07-24T16:02:33;2.70;;;2.28;;
29958;SDS011;16815;51.100;6.516;2023-07-24T16:04:59;2.50;;;2.30;;
29958;SDS011;16815;51.100;6.516;2023-07-24T16:07:25;3.13;;;2.58;;
29958;SDS011;16815;51.100;6.516;2023-07-24T16:09:51;3.35;;;2.33;;
29958;SDS011;16815;51.100;6.516;2023-07-24T16:12:20;2.57;;;2.37;;
29958;SDS011;16815;51.100;6.516;2023-07-24T16:14:56;3.50;;;2.73;;
29958;SDS011;16815;51.100;6.516;2023-07-24T16:17:22;4.50;;;3.10;;
29958;SDS011;16815;51.100;6.516;2023-07-24T16:20:02;3.20;;;2.90;;
29958;SDS011;16815;51.100;6.516;2023-07-24T16:25:23;5.57;;;2.80;;
29958;SDS011;16815;51.100;6.516;2023-07-24T16:42:43;4.03;;;3.00;;
29958;SDS011;16815;51.100;6.516;2023-07-24T16:45:14;3.80;;;3.20;;
29958;SDS011;16815;51.100;6.516;2023-07-24T16:47:40;3.67;;;3.33;;
29958;SDS011;16815;51.100;6.516;2023-07-24T16:50:06;4.70;;;3.23;;
29958;SDS011;16815;51.100;6.516;2023-07-24T16:52:33;4.57;;;2.80;;
29958;SDS011;16815;51.100;6.516;2023-07-24T16:54:58;3.40;;;3.10;;
29958;SDS011;16815;51.100;6.516;2023-07-24T16:57:25;2.17;;;2.00;;
29958;SDS011;16815;51.100;6.516;2023-07-24T16:59:52;1.90;;;1.80;;
29958;SDS011;16815;51.100;6.516;2023-07-24T17:02:19;1.80;;;1.70;;
29958;SDS011;16815;51.100;6.516;2023-07-24T17:04:48;2.13;;;1.90;;
29958;SDS011;16815;51.100;6.516;2023-07-24T17:07:17;2.23;;;1.60;;
29958;SDS011;16815;51.100;6.516;2023-07-24T17:09:46;1.93;;;1.63;;
29958;SDS011;16815;51.100;6.516;2023-07-24T17:12:12;2.27;;;1.50;;
29958;SDS011;16815;51.100;6.516;2023-07-24T17:17:52;3.93;;;2.07;;
29958;SDS011;16815;51.100;6.516;2023-07-24T17:23:58;2.37;;;1.93;;
29958;SDS011;16815;51.100;6.516;2023-07-24T17:26:19;2.33;;;2.13;;
29958;SDS011;16815;51.100;6.516;2023-07-24T17:28:45;2.23;;;2.00;;
29958;SDS011;16815;51.100;6.516;2023-07-24T17:31:12;2.57;;;2.10;;
29958;SDS011;16815;51.100;6.516;2023-07-24T17:33:38;2.13;;;1.87;;
29958;SDS011;16815;51.100;6.516;2023-07-24T17:36:04;2.60;;;2.03;;
29958;SDS011;16815;51.100;6.516;2023-07-24T17:38:33;3.57;;;2.10;;
29958;SDS011;16815;51.100;6.516;2023-07-24T17:41:02;3.37;;;2.10;;
29958;SDS011;16815;51.100;6.516;2023-07-24T17:43:29;2.00;;;1.90;;
29958;SDS011;16815;51.100;6.516;2023-07-24T17:45:55;2.20;;;2.00;;
29958;SDS011;16815;51.100;6.516;2023-07-24T17:48:21;4.80;;;1.87;;
29958;SDS011;16815;51.100;6.516;2023-07-24T17:50:47;1.70;;;1.57;;
29958;SDS011;16815;51.100;6.516;2023-07-24T17:53:13;3.00;;;1.60;;
29958;SDS011;16815;51.100;6.516;2023-07-24T17:55:39;2.00;;;1.80;;
29958;SDS011;16815;51.100;6.516;2023-07-24T17:58:06;3.60;;;2.17;;
29958;SDS011;16815;51.100;6.516;2023-07-24T18:00:32;2.00;;;1.80;;
29958;SDS011;16815;51.100;6.516;2023-07-24T18:03:04;2.00;;;1.90;;
29958;SDS011;16815;51.100;6.516;2023-07-24T18:05:30;5.13;;;2.00;;
29958;SDS011;16815;51.100;6.516;2023-07-24T18:07:56;2.03;;;1.90;;
29958;SDS011;16815;51.100;6.516;2023-07-24T18:10:22;3.10;;;2.10;;
29958;SDS011;16815;51.100;6.516;2023-07-24T18:12:48;2.30;;;2.10;;
29958;SDS011;16815;51.100;6.516;2023-07-24T18:15:15;2.97;;;2.30;;
29958;SDS011;16815;51.100;6.516;2023-07-24T18:17:42;2.63;;;2.20;;
29958;SDS011;16815;51.100;6.516;2023-07-24T18:20:10;3.60;;;2.57;;
29958;SDS011;16815;51.100;6.516;2023-07-24T18:22:42;3.17;;;2.50;;
29958;SDS011;16815;51.100;6.516;2023-07-24T18:25:09;3.17;;;2.20;;
29958;SDS011;16815;51.100;6.516;2023-07-24T18:27:44;3.20;;;2.50;;